Archival Weather

Václav Havel Intl Apt

Prague, Czechia (LKPR)

Report from: Friday, May 26, 2023 6:30 PM CEST
Current time: Friday, July 19, 2024 3:37 AM CEST

Current weather – Weather history – Daily summaries
Weather forecast

Temperature19.0°C (66.2°F)
Dew point5.0°C (41.0°F)
Winds 9 kts (4.6 m/s, 10.4 mph) North (360°)
Clouds Sky clear
Altimeter30.24 in.Hg (1024 mB)
Relative humidity40 %
Density altitude238 ft. (72 m)
Remarks Ceiling and visibility OK
No significant changes expected in the next two hours
Flight conditions Visual Meteorological Conditions
Raw dataLKPR 261630Z 36009KT CAVOK 19/05 Q1024 NOSIG
An error has occurred. This application may no longer respond until reloaded. Reload 🗙